sensor_id;sensor_type;location;lat;lon;timestamp;P1;durP1;ratioP1;P2;durP2;ratioP2
9436;SDS011;4757;59.334;18.034;2023-02-11T00:01:20;2.70;;;1.50;;
9436;SDS011;4757;59.334;18.034;2023-02-11T00:03:56;2.50;;;1.40;;
9436;SDS011;4757;59.334;18.034;2023-02-11T00:06:24;1.77;;;1.40;;
9436;SDS011;4757;59.334;18.034;2023-02-11T00:08:53;2.17;;;1.77;;
9436;SDS011;4757;59.334;18.034;2023-02-11T00:11:22;5.40;;;2.00;;
9436;SDS011;4757;59.334;18.034;2023-02-11T00:13:51;2.43;;;2.20;;
9436;SDS011;4757;59.334;18.034;2023-02-11T00:16:19;2.73;;;2.03;;
9436;SDS011;4757;59.334;18.034;2023-02-11T00:18:46;2.50;;;1.77;;
9436;SDS011;4757;59.334;18.034;2023-02-11T00:21:15;3.23;;;2.23;;
9436;SDS011;4757;59.334;18.034;2023-02-11T00:23:44;3.97;;;2.07;;
9436;SDS011;4757;59.334;18.034;2023-02-11T00:26:17;3.03;;;2.03;;
9436;SDS011;4757;59.334;18.034;2023-02-11T00:28:46;5.53;;;2.17;;
9436;SDS011;4757;59.334;18.034;2023-02-11T00:31:14;3.13;;;2.47;;
9436;SDS011;4757;59.334;18.034;2023-02-11T00:33:43;4.17;;;1.90;;
9436;SDS011;4757;59.334;18.034;2023-02-11T00:36:29;3.63;;;2.07;;
9436;SDS011;4757;59.334;18.034;2023-02-11T00:38:57;8.97;;;2.23;;
9436;SDS011;4757;59.334;18.034;2023-02-11T00:41:25;2.57;;;1.70;;
9436;SDS011;4757;59.334;18.034;2023-02-11T00:43:52;6.93;;;2.60;;
9436;SDS011;4757;59.334;18.034;2023-02-11T00:46:19;3.10;;;1.97;;
9436;SDS011;4757;59.334;18.034;2023-02-11T00:48:47;5.40;;;2.30;;
9436;SDS011;4757;59.334;18.034;2023-02-11T00:51:14;3.70;;;2.37;;
9436;SDS011;4757;59.334;18.034;2023-02-11T00:53:42;3.43;;;1.77;;
9436;SDS011;4757;59.334;18.034;2023-02-11T00:56:09;3.13;;;2.20;;
9436;SDS011;4757;59.334;18.034;2023-02-11T00:58:36;4.57;;;2.60;;
9436;SDS011;4757;59.334;18.034;2023-02-11T01:01:03;3.70;;;2.47;;
9436;SDS011;4757;59.334;18.034;2023-02-11T01:03:31;2.63;;;2.10;;
9436;SDS011;4757;59.334;18.034;2023-02-11T01:05:58;2.10;;;1.70;;
9436;SDS011;4757;59.334;18.034;2023-02-11T01:08:25;4.50;;;2.50;;
9436;SDS011;4757;59.334;18.034;2023-02-11T01:10:56;4.03;;;1.70;;
9436;SDS011;4757;59.334;18.034;2023-02-11T01:13:24;3.93;;;2.70;;
9436;SDS011;4757;59.334;18.034;2023-02-11T01:15:53;3.77;;;2.13;;
9436;SDS011;4757;59.334;18.034;2023-02-11T01:18:22;2.80;;;2.10;;
9436;SDS011;4757;59.334;18.034;2023-02-11T01:20:51;3.17;;;2.03;;
9436;SDS011;4757;59.334;18.034;2023-02-11T01:23:18;7.20;;;2.43;;
9436;SDS011;4757;59.334;18.034;2023-02-11T01:25:46;3.53;;;2.37;;
9436;SDS011;4757;59.334;18.034;2023-02-11T01:28:24;6.40;;;2.17;;
9436;SDS011;4757;59.334;18.034;2023-02-11T01:30:53;3.63;;;2.30;;
9436;SDS011;4757;59.334;18.034;2023-02-11T01:33:20;3.73;;;1.67;;
9436;SDS011;4757;59.334;18.034;2023-02-11T01:35:48;3.20;;;1.60;;
9436;SDS011;4757;59.334;18.034;2023-02-11T01:38:20;4.30;;;1.70;;
9436;SDS011;4757;59.334;18.034;2023-02-11T01:40:52;4.63;;;1.77;;
9436;SDS011;4757;59.334;18.034;2023-02-11T01:43:26;4.40;;;2.23;;
9436;SDS011;4757;59.334;18.034;2023-02-11T01:45:57;6.23;;;2.37;;
9436;SDS011;4757;59.334;18.034;2023-02-11T01:48:29;3.87;;;2.13;;
9436;SDS011;4757;59.334;18.034;2023-02-11T01:51:05;3.13;;;1.60;;
9436;SDS011;4757;59.334;18.034;2023-02-11T01:53:38;2.00;;;1.60;;
9436;SDS011;4757;59.334;18.034;2023-02-11T01:56:24;4.13;;;2.40;;
9436;SDS011;4757;59.334;18.034;2023-02-11T01:59:21;2.90;;;2.00;;
9436;SDS011;4757;59.334;18.034;2023-02-11T02:01:59;3.70;;;1.73;;
9436;SDS011;4757;59.334;18.034;2023-02-11T02:04:32;4.43;;;2.00;;
9436;SDS011;4757;59.334;18.034;2023-02-11T02:07:05;5.57;;;2.20;;
9436;SDS011;4757;59.334;18.034;2023-02-11T02:09:38;3.83;;;1.80;;
9436;SDS011;4757;59.334;18.034;2023-02-11T02:12:09;2.53;;;1.93;;
9436;SDS011;4757;59.334;18.034;2023-02-11T02:14:37;6.50;;;2.00;;
9436;SDS011;4757;59.334;18.034;2023-02-11T02:17:08;6.37;;;2.63;;
9436;SDS011;4757;59.334;18.034;2023-02-11T02:34:22;3.03;;;1.87;;
9436;SDS011;4757;59.334;18.034;2023-02-11T02:37:11;5.00;;;1.70;;
9436;SDS011;4757;59.334;18.034;2023-02-11T02:39:45;2.70;;;1.97;;
9436;SDS011;4757;59.334;18.034;2023-02-11T02:42:15;3.43;;;2.30;;
9436;SDS011;4757;59.334;18.034;2023-02-11T02:44:48;6.30;;;1.73;;
9436;SDS011;4757;59.334;18.034;2023-02-11T02:47:17;6.70;;;2.80;;
9436;SDS011;4757;59.334;18.034;2023-02-11T02:49:44;4.37;;;1.90;;
9436;SDS011;4757;59.334;18.034;2023-02-11T02:52:15;3.77;;;2.27;;
9436;SDS011;4757;59.334;18.034;2023-02-11T02:57:55;2.77;;;1.90;;
9436;SDS011;4757;59.334;18.034;2023-02-11T03:09:06;3.57;;;2.10;;
9436;SDS011;4757;59.334;18.034;2023-02-11T03:11:38;2.23;;;1.50;;
9436;SDS011;4757;59.334;18.034;2023-02-11T03:14:07;7.47;;;3.10;;
9436;SDS011;4757;59.334;18.034;2023-02-11T03:16:36;3.17;;;1.87;;
9436;SDS011;4757;59.334;18.034;2023-02-11T03:19:07;2.33;;;1.80;;
9436;SDS011;4757;59.334;18.034;2023-02-11T03:21:57;2.00;;;1.60;;
9436;SDS011;4757;59.334;18.034;2023-02-11T03:24:27;2.47;;;1.70;;
9436;SDS011;4757;59.334;18.034;2023-02-11T03:26:58;0.93;;;0.93;;
9436;SDS011;4757;59.334;18.034;2023-02-11T03:29:37;1.83;;;1.40;;
9436;SDS011;4757;59.334;18.034;2023-02-11T03:32:16;2.93;;;1.20;;
9436;SDS011;4757;59.334;18.034;2023-02-11T03:35:00;1.13;;;1.10;;
9436;SDS011;4757;59.334;18.034;2023-02-11T03:37:31;2.17;;;1.60;;
9436;SDS011;4757;59.334;18.034;2023-02-11T03:40:26;1.23;;;0.83;;
9436;SDS011;4757;59.334;18.034;2023-02-11T03:42:58;1.00;;;0.97;;
9436;SDS011;4757;59.334;18.034;2023-02-11T03:45:37;2.17;;;1.50;;
9436;SDS011;4757;59.334;18.034;2023-02-11T03:48:07;0.77;;;0.77;;
9436;SDS011;4757;59.334;18.034;2023-02-11T03:50:41;1.50;;;0.90;;
9436;SDS011;4757;59.334;18.034;2023-02-11T03:53:11;2.37;;;0.67;;
9436;SDS011;4757;59.334;18.034;2023-02-11T03:55:39;1.73;;;1.10;;
9436;SDS011;4757;59.334;18.034;2023-02-11T03:58:08;1.50;;;1.30;;
9436;SDS011;4757;59.334;18.034;2023-02-11T04:00:37;2.73;;;0.57;;
9436;SDS011;4757;59.334;18.034;2023-02-11T04:03:06;0.53;;;0.40;;
9436;SDS011;4757;59.334;18.034;2023-02-11T04:05:35;0.47;;;0.47;;
9436;SDS011;4757;59.334;18.034;2023-02-11T04:08:02;0.73;;;0.67;;
9436;SDS011;4757;59.334;18.034;2023-02-11T04:10:32;1.33;;;0.90;;
9436;SDS011;4757;59.334;18.034;2023-02-11T04:12:59;4.90;;;0.87;;
9436;SDS011;4757;59.334;18.034;2023-02-11T04:15:26;0.70;;;0.70;;
9436;SDS011;4757;59.334;18.034;2023-02-11T04:17:53;0.57;;;0.57;;
9436;SDS011;4757;59.334;18.034;2023-02-11T04:20:20;1.43;;;0.73;;
9436;SDS011;4757;59.334;18.034;2023-02-11T04:22:48;1.17;;;1.00;;
9436;SDS011;4757;59.334;18.034;2023-02-11T04:25:15;1.33;;;0.60;;
9436;SDS011;4757;59.334;18.034;2023-02-11T04:27:42;0.83;;;0.60;;
9436;SDS011;4757;59.334;18.034;2023-02-11T04:30:10;0.27;;;0.27;;
9436;SDS011;4757;59.334;18.034;2023-02-11T04:32:38;1.90;;;0.87;;
9436;SDS011;4757;59.334;18.034;2023-02-11T04:35:05;1.73;;;1.10;;
9436;SDS011;4757;59.334;18.034;2023-02-11T04:37:33;1.13;;;1.03;;
9436;SDS011;4757;59.334;18.034;2023-02-11T04:40:00;1.23;;;0.50;;
9436;SDS011;4757;59.334;18.034;2023-02-11T04:42:28;1.97;;;1.00;;
9436;SDS011;4757;59.334;18.034;2023-02-11T04:44:55;1.27;;;0.73;;
9436;SDS011;4757;59.334;18.034;2023-02-11T04:47:31;1.17;;;0.70;;
9436;SDS011;4757;59.334;18.034;2023-02-11T04:49:58;1.37;;;0.90;;
9436;SDS011;4757;59.334;18.034;2023-02-11T04:52:26;1.53;;;1.13;;
9436;SDS011;4757;59.334;18.034;2023-02-11T04:54:53;3.67;;;0.90;;
9436;SDS011;4757;59.334;18.034;2023-02-11T04:57:20;1.53;;;0.90;;
9436;SDS011;4757;59.334;18.034;2023-02-11T04:59:47;2.80;;;1.20;;
9436;SDS011;4757;59.334;18.034;2023-02-11T05:02:14;1.37;;;0.90;;
9436;SDS011;4757;59.334;18.034;2023-02-11T05:04:41;1.37;;;0.80;;
9436;SDS011;4757;59.334;18.034;2023-02-11T05:07:08;1.63;;;0.90;;
9436;SDS011;4757;59.334;18.034;2023-02-11T05:09:36;0.87;;;0.63;;
9436;SDS011;4757;59.334;18.034;2023-02-11T05:12:03;1.77;;;0.60;;
9436;SDS011;4757;59.334;18.034;2023-02-11T05:14:30;2.53;;;0.47;;
9436;SDS011;4757;59.334;18.034;2023-02-11T05:16:57;1.83;;;0.73;;
9436;SDS011;4757;59.334;18.034;2023-02-11T05:19:25;0.90;;;0.87;;
9436;SDS011;4757;59.334;18.034;2023-02-11T05:21:52;0.43;;;0.40;;
9436;SDS011;4757;59.334;18.034;2023-02-11T05:24:29;1.07;;;0.60;;
9436;SDS011;4757;59.334;18.034;2023-02-11T05:26:57;3.90;;;0.70;;
9436;SDS011;4757;59.334;18.034;2023-02-11T05:29:27;1.27;;;0.43;;
9436;SDS011;4757;59.334;18.034;2023-02-11T05:31:54;1.37;;;0.90;;
9436;SDS011;4757;59.334;18.034;2023-02-11T05:34:21;1.93;;;1.00;;
9436;SDS011;4757;59.334;18.034;2023-02-11T05:36:49;0.40;;;0.40;;
9436;SDS011;4757;59.334;18.034;2023-02-11T05:39:16;0.97;;;0.70;;
9436;SDS011;4757;59.334;18.034;2023-02-11T05:41:43;2.27;;;1.13;;
9436;SDS011;4757;59.334;18.034;2023-02-11T05:44:10;2.37;;;0.40;;
9436;SDS011;4757;59.334;18.034;2023-02-11T05:46:38;0.80;;;0.70;;
9436;SDS011;4757;59.334;18.034;2023-02-11T05:49:05;3.07;;;1.40;;
9436;SDS011;4757;59.334;18.034;2023-02-11T05:51:32;0.70;;;0.70;;
9436;SDS011;4757;59.334;18.034;2023-02-11T05:53:59;3.37;;;0.70;;
9436;SDS011;4757;59.334;18.034;2023-02-11T05:56:26;0.97;;;0.80;;
9436;SDS011;4757;59.334;18.034;2023-02-11T05:58:53;1.87;;;0.60;;
9436;SDS011;4757;59.334;18.034;2023-02-11T06:01:20;0.70;;;0.70;;
9436;SDS011;4757;59.334;18.034;2023-02-11T06:03:47;5.57;;;1.03;;
9436;SDS011;4757;59.334;18.034;2023-02-11T06:06:15;1.63;;;0.43;;
9436;SDS011;4757;59.334;18.034;2023-02-11T06:08:43;2.37;;;1.20;;
9436;SDS011;4757;59.334;18.034;2023-02-11T06:11:10;2.10;;;0.87;;
9436;SDS011;4757;59.334;18.034;2023-02-11T06:13:39;2.53;;;1.37;;
9436;SDS011;4757;59.334;18.034;2023-02-11T06:16:06;0.40;;;0.40;;
9436;SDS011;4757;59.334;18.034;2023-02-11T06:18:33;1.37;;;0.87;;
9436;SDS011;4757;59.334;18.034;2023-02-11T06:21:09;0.77;;;0.73;;
9436;SDS011;4757;59.334;18.034;2023-02-11T06:23:37;1.03;;;0.87;;
9436;SDS011;4757;59.334;18.034;2023-02-11T06:26:05;0.40;;;0.40;;
9436;SDS011;4757;59.334;18.034;2023-02-11T06:28:33;2.40;;;1.23;;
9436;SDS011;4757;59.334;18.034;2023-02-11T06:31:05;0.67;;;0.63;;
9436;SDS011;4757;59.334;18.034;2023-02-11T06:33:33;0.70;;;0.70;;
9436;SDS011;4757;59.334;18.034;2023-02-11T06:36:01;6.83;;;0.80;;
9436;SDS011;4757;59.334;18.034;2023-02-11T06:38:28;1.63;;;1.10;;
9436;SDS011;4757;59.334;18.034;2023-02-11T06:40:56;0.57;;;0.57;;
9436;SDS011;4757;59.334;18.034;2023-02-11T06:43:23;2.37;;;1.37;;
9436;SDS011;4757;59.334;18.034;2023-02-11T06:45:53;0.90;;;0.90;;
9436;SDS011;4757;59.334;18.034;2023-02-11T06:48:21;0.80;;;0.80;;
9436;SDS011;4757;59.334;18.034;2023-02-11T06:50:49;2.93;;;0.93;;
9436;SDS011;4757;59.334;18.034;2023-02-11T06:53:16;2.87;;;2.00;;
9436;SDS011;4757;59.334;18.034;2023-02-11T06:55:43;1.93;;;1.13;;
9436;SDS011;4757;59.334;18.034;2023-02-11T06:58:10;0.50;;;0.50;;
9436;SDS011;4757;59.334;18.034;2023-02-11T07:00:37;2.90;;;0.97;;
9436;SDS011;4757;59.334;18.034;2023-02-11T07:03:04;0.97;;;0.73;;
9436;SDS011;4757;59.334;18.034;2023-02-11T07:05:31;7.07;;;2.43;;
9436;SDS011;4757;59.334;18.034;2023-02-11T07:07:59;1.20;;;0.73;;
9436;SDS011;4757;59.334;18.034;2023-02-11T07:10:26;2.43;;;1.00;;
9436;SDS011;4757;59.334;18.034;2023-02-11T07:12:53;3.13;;;1.67;;
9436;SDS011;4757;59.334;18.034;2023-02-11T07:15:23;2.03;;;1.20;;
9436;SDS011;4757;59.334;18.034;2023-02-11T07:17:51;3.03;;;1.23;;
9436;SDS011;4757;59.334;18.034;2023-02-11T07:20:18;1.20;;;0.60;;
9436;SDS011;4757;59.334;18.034;2023-02-11T07:22:45;4.57;;;0.67;;
9436;SDS011;4757;59.334;18.034;2023-02-11T07:25:12;2.60;;;1.27;;
9436;SDS011;4757;59.334;18.034;2023-02-11T07:27:39;4.67;;;2.10;;
9436;SDS011;4757;59.334;18.034;2023-02-11T07:30:07;4.83;;;1.23;;
9436;SDS011;4757;59.334;18.034;2023-02-11T07:32:34;5.93;;;1.33;;
9436;SDS011;4757;59.334;18.034;2023-02-11T07:35:01;2.20;;;0.90;;
9436;SDS011;4757;59.334;18.034;2023-02-11T07:37:29;2.20;;;1.30;;
9436;SDS011;4757;59.334;18.034;2023-02-11T07:39:56;4.43;;;0.80;;
9436;SDS011;4757;59.334;18.034;2023-02-11T07:42:23;1.27;;;1.10;;
9436;SDS011;4757;59.334;18.034;2023-02-11T07:44:50;0.50;;;0.50;;
9436;SDS011;4757;59.334;18.034;2023-02-11T07:47:17;1.37;;;1.10;;
9436;SDS011;4757;59.334;18.034;2023-02-11T07:49:44;1.20;;;0.90;;
9436;SDS011;4757;59.334;18.034;2023-02-11T07:52:11;0.80;;;0.80;;
9436;SDS011;4757;59.334;18.034;2023-02-11T07:54:38;1.83;;;1.17;;
9436;SDS011;4757;59.334;18.034;2023-02-11T07:57:06;0.67;;;0.67;;
9436;SDS011;4757;59.334;18.034;2023-02-11T07:59:33;7.27;;;2.27;;
9436;SDS011;4757;59.334;18.034;2023-02-11T08:02:03;1.57;;;1.47;;
9436;SDS011;4757;59.334;18.034;2023-02-11T08:04:30;3.53;;;1.63;;
9436;SDS011;4757;59.334;18.034;2023-02-11T08:06:57;1.90;;;1.20;;
9436;SDS011;4757;59.334;18.034;2023-02-11T08:09:24;4.60;;;1.93;;
9436;SDS011;4757;59.334;18.034;2023-02-11T08:11:51;2.67;;;1.13;;
9436;SDS011;4757;59.334;18.034;2023-02-11T08:14:19;7.27;;;2.90;;
9436;SDS011;4757;59.334;18.034;2023-02-11T08:16:46;1.93;;;1.47;;
9436;SDS011;4757;59.334;18.034;2023-02-11T08:19:14;2.60;;;1.60;;
9436;SDS011;4757;59.334;18.034;2023-02-11T08:21:42;2.73;;;0.87;;
9436;SDS011;4757;59.334;18.034;2023-02-11T08:24:11;0.77;;;0.77;;
9436;SDS011;4757;59.334;18.034;2023-02-11T08:26:39;1.10;;;0.70;;
9436;SDS011;4757;59.334;18.034;2023-02-11T08:29:09;7.07;;;2.53;;
9436;SDS011;4757;59.334;18.034;2023-02-11T08:31:40;3.23;;;1.20;;
9436;SDS011;4757;59.334;18.034;2023-02-11T08:34:10;4.60;;;1.70;;
9436;SDS011;4757;59.334;18.034;2023-02-11T08:36:40;3.67;;;1.67;;
9436;SDS011;4757;59.334;18.034;2023-02-11T08:39:09;1.73;;;1.10;;
9436;SDS011;4757;59.334;18.034;2023-02-11T08:41:52;4.10;;;1.87;;
9436;SDS011;4757;59.334;18.034;2023-02-11T08:44:21;9.07;;;1.90;;
9436;SDS011;4757;59.334;18.034;2023-02-11T08:46:49;4.70;;;1.67;;
9436;SDS011;4757;59.334;18.034;2023-02-11T08:49:22;2.93;;;1.97;;
9436;SDS011;4757;59.334;18.034;2023-02-11T08:51:49;3.73;;;1.40;;
9436;SDS011;4757;59.334;18.034;2023-02-11T08:54:17;2.00;;;1.30;;
9436;SDS011;4757;59.334;18.034;2023-02-11T08:56:44;2.60;;;0.47;;
9436;SDS011;4757;59.334;18.034;2023-02-11T08:59:12;4.00;;;1.50;;
9436;SDS011;4757;59.334;18.034;2023-02-11T09:01:40;3.50;;;1.80;;
9436;SDS011;4757;59.334;18.034;2023-02-11T09:04:09;8.20;;;2.80;;
9436;SDS011;4757;59.334;18.034;2023-02-11T09:06:36;3.63;;;1.57;;
9436;SDS011;4757;59.334;18.034;2023-02-11T09:09:04;5.63;;;1.97;;
9436;SDS011;4757;59.334;18.034;2023-02-11T09:11:32;1.17;;;1.07;;
9436;SDS011;4757;59.334;18.034;2023-02-11T09:14:00;5.30;;;2.30;;
9436;SDS011;4757;59.334;18.034;2023-02-11T09:16:30;7.10;;;2.17;;
9436;SDS011;4757;59.334;18.034;2023-02-11T09:19:00;4.43;;;1.40;;
9436;SDS011;4757;59.334;18.034;2023-02-11T09:21:29;3.73;;;1.13;;
9436;SDS011;4757;59.334;18.034;2023-02-11T09:23:57;6.90;;;1.93;;
9436;SDS011;4757;59.334;18.034;2023-02-11T09:26:26;1.83;;;0.90;;
9436;SDS011;4757;59.334;18.034;2023-02-11T09:28:55;3.07;;;1.03;;
9436;SDS011;4757;59.334;18.034;2023-02-11T09:31:23;1.10;;;0.83;;
9436;SDS011;4757;59.334;18.034;2023-02-11T09:33:56;4.83;;;1.67;;
9436;SDS011;4757;59.334;18.034;2023-02-11T09:36:30;1.33;;;1.13;;
9436;SDS011;4757;59.334;18.034;2023-02-11T09:39:00;3.17;;;1.63;;
9436;SDS011;4757;59.334;18.034;2023-02-11T09:44:09;3.47;;;1.30;;
9436;SDS011;4757;59.334;18.034;2023-02-11T09:47:04;1.33;;;1.13;;
9436;SDS011;4757;59.334;18.034;2023-02-11T09:55:28;1.40;;;0.87;;
9436;SDS011;4757;59.334;18.034;2023-02-11T09:58:03;4.47;;;2.20;;
9436;SDS011;4757;59.334;18.034;2023-02-11T10:00:47;2.87;;;1.13;;
9436;SDS011;4757;59.334;18.034;2023-02-11T10:06:24;2.77;;;1.90;;
9436;SDS011;4757;59.334;18.034;2023-02-11T10:21:04;7.17;;;4.50;;
9436;SDS011;4757;59.334;18.034;2023-02-11T10:23:36;8.07;;;2.50;;
9436;SDS011;4757;59.334;18.034;2023-02-11T10:26:11;0.87;;;0.87;;
9436;SDS011;4757;59.334;18.034;2023-02-11T10:28:41;6.00;;;1.20;;
9436;SDS011;4757;59.334;18.034;2023-02-11T10:31:27;2.23;;;1.63;;
9436;SDS011;4757;59.334;18.034;2023-02-11T10:34:11;3.90;;;1.53;;
9436;SDS011;4757;59.334;18.034;2023-02-11T10:36:43;2.20;;;1.23;;
9436;SDS011;4757;59.334;18.034;2023-02-11T10:39:15;3.70;;;1.20;;
9436;SDS011;4757;59.334;18.034;2023-02-11T10:41:48;5.20;;;1.43;;
9436;SDS011;4757;59.334;18.034;2023-02-11T10:47:32;3.30;;;1.43;;
9436;SDS011;4757;59.334;18.034;2023-02-11T10:50:16;3.50;;;0.93;;
9436;SDS011;4757;59.334;18.034;2023-02-11T10:52:49;1.13;;;0.90;;
9436;SDS011;4757;59.334;18.034;2023-02-11T10:55:23;6.37;;;1.13;;
9436;SDS011;4757;59.334;18.034;2023-02-11T10:57:55;0.97;;;0.87;;
9436;SDS011;4757;59.334;18.034;2023-02-11T11:00:33;6.20;;;1.40;;
9436;SDS011;4757;59.334;18.034;2023-02-11T11:03:24;5.27;;;2.00;;
9436;SDS011;4757;59.334;18.034;2023-02-11T11:06:02;3.27;;;1.03;;
9436;SDS011;4757;59.334;18.034;2023-02-11T11:11:15;6.87;;;1.60;;
9436;SDS011;4757;59.334;18.034;2023-02-11T11:16:31;3.03;;;1.40;;
9436;SDS011;4757;59.334;18.034;2023-02-11T11:21:43;4.03;;;1.80;;
9436;SDS011;4757;59.334;18.034;2023-02-11T11:24:20;6.23;;;1.60;;
9436;SDS011;4757;59.334;18.034;2023-02-11T11:26:54;3.03;;;1.17;;
9436;SDS011;4757;59.334;18.034;2023-02-11T11:29:36;4.50;;;1.80;;
9436;SDS011;4757;59.334;18.034;2023-02-11T11:32:12;4.93;;;1.80;;
9436;SDS011;4757;59.334;18.034;2023-02-11T11:34:52;6.60;;;1.63;;
9436;SDS011;4757;59.334;18.034;2023-02-11T11:37:27;1.90;;;1.10;;
9436;SDS011;4757;59.334;18.034;2023-02-11T11:40:07;4.23;;;2.17;;
9436;SDS011;4757;59.334;18.034;2023-02-11T11:42:41;3.10;;;1.10;;
9436;SDS011;4757;59.334;18.034;2023-02-11T11:48:02;5.93;;;2.63;;
9436;SDS011;4757;59.334;18.034;2023-02-11T11:50:49;4.00;;;0.90;;
9436;SDS011;4757;59.334;18.034;2023-02-11T11:53:47;1.80;;;0.93;;
9436;SDS011;4757;59.334;18.034;2023-02-11T11:56:23;3.63;;;1.20;;
9436;SDS011;4757;59.334;18.034;2023-02-11T11:59:01;5.03;;;1.83;;
9436;SDS011;4757;59.334;18.034;2023-02-11T12:16:17;7.47;;;1.93;;
9436;SDS011;4757;59.334;18.034;2023-02-11T12:24:31;3.90;;;2.63;;
9436;SDS011;4757;59.334;18.034;2023-02-11T12:32:52;3.57;;;1.80;;
9436;SDS011;4757;59.334;18.034;2023-02-11T12:38:49;4.10;;;1.70;;
9436;SDS011;4757;59.334;18.034;2023-02-11T12:47:38;11.70;;;2.60;;
9436;SDS011;4757;59.334;18.034;2023-02-11T12:55:39;3.33;;;2.00;;
9436;SDS011;4757;59.334;18.034;2023-02-11T12:58:14;3.57;;;1.60;;
9436;SDS011;4757;59.334;18.034;2023-02-11T13:01:05;2.03;;;1.77;;
9436;SDS011;4757;59.334;18.034;2023-02-11T13:04:05;4.20;;;1.70;;
9436;SDS011;4757;59.334;18.034;2023-02-11T13:06:39;3.70;;;1.60;;
9436;SDS011;4757;59.334;18.034;2023-02-11T13:09:19;3.57;;;1.93;;
9436;SDS011;4757;59.334;18.034;2023-02-11T13:11:56;3.30;;;2.03;;
9436;SDS011;4757;59.334;18.034;2023-02-11T13:14:47;2.43;;;1.00;;
9436;SDS011;4757;59.334;18.034;2023-02-11T13:17:21;4.57;;;1.90;;
9436;SDS011;4757;59.334;18.034;2023-02-11T13:20:00;6.40;;;1.77;;
9436;SDS011;4757;59.334;18.034;2023-02-11T13:22:53;14.23;;;7.53;;
9436;SDS011;4757;59.334;18.034;2023-02-11T13:25:35;5.43;;;3.07;;
9436;SDS011;4757;59.334;18.034;2023-02-11T13:30:51;6.23;;;1.93;;
9436;SDS011;4757;59.334;18.034;2023-02-11T13:38:39;5.90;;;2.63;;
9436;SDS011;4757;59.334;18.034;2023-02-11T13:46:26;6.63;;;2.03;;
9436;SDS011;4757;59.334;18.034;2023-02-11T13:48:57;2.67;;;1.70;;
9436;SDS011;4757;59.334;18.034;2023-02-11T13:51:38;4.00;;;1.80;;
9436;SDS011;4757;59.334;18.034;2023-02-11T13:54:07;5.03;;;1.90;;
9436;SDS011;4757;59.334;18.034;2023-02-11T13:57:13;5.10;;;1.90;;
9436;SDS011;4757;59.334;18.034;2023-02-11T13:59:59;5.87;;;1.73;;
9436;SDS011;4757;59.334;18.034;2023-02-11T14:02:32;3.70;;;1.93;;
9436;SDS011;4757;59.334;18.034;2023-02-11T14:05:24;4.17;;;2.27;;
9436;SDS011;4757;59.334;18.034;2023-02-11T14:08:15;6.00;;;3.03;;
9436;SDS011;4757;59.334;18.034;2023-02-11T14:11:50;6.00;;;2.67;;
9436;SDS011;4757;59.334;18.034;2023-02-11T14:14:01;3.50;;;1.60;;
9436;SDS011;4757;59.334;18.034;2023-02-11T14:19:38;8.67;;;1.87;;
9436;SDS011;4757;59.334;18.034;2023-02-11T14:22:17;2.63;;;1.40;;
9436;SDS011;4757;59.334;18.034;2023-02-11T14:25:14;4.03;;;1.50;;
9436;SDS011;4757;59.334;18.034;2023-02-11T14:28:10;3.63;;;2.00;;
9436;SDS011;4757;59.334;18.034;2023-02-11T14:30:57;5.57;;;2.73;;
9436;SDS011;4757;59.334;18.034;2023-02-11T14:36:27;2.77;;;1.50;;
9436;SDS011;4757;59.334;18.034;2023-02-11T14:39:45;4.10;;;1.63;;
9436;SDS011;4757;59.334;18.034;2023-02-11T14:42:31;3.57;;;2.20;;
9436;SDS011;4757;59.334;18.034;2023-02-11T14:45:03;5.33;;;2.23;;
9436;SDS011;4757;59.334;18.034;2023-02-11T14:53:28;3.93;;;1.50;;
9436;SDS011;4757;59.334;18.034;2023-02-11T14:55:59;5.40;;;2.03;;
9436;SDS011;4757;59.334;18.034;2023-02-11T14:58:29;2.60;;;2.00;;
9436;SDS011;4757;59.334;18.034;2023-02-11T15:01:02;8.60;;;2.27;;
9436;SDS011;4757;59.334;18.034;2023-02-11T15:03:41;4.47;;;1.83;;
9436;SDS011;4757;59.334;18.034;2023-02-11T15:11:37;8.33;;;5.07;;
9436;SDS011;4757;59.334;18.034;2023-02-11T15:14:07;7.30;;;2.80;;
9436;SDS011;4757;59.334;18.034;2023-02-11T15:16:41;5.00;;;3.13;;
9436;SDS011;4757;59.334;18.034;2023-02-11T15:19:18;4.80;;;3.30;;
9436;SDS011;4757;59.334;18.034;2023-02-11T15:21:54;5.63;;;1.73;;
9436;SDS011;4757;59.334;18.034;2023-02-11T15:24:30;1.97;;;1.53;;
9436;SDS011;4757;59.334;18.034;2023-02-11T15:29:40;4.37;;;2.20;;
9436;SDS011;4757;59.334;18.034;2023-02-11T15:32:16;7.17;;;2.27;;
9436;SDS011;4757;59.334;18.034;2023-02-11T15:34:47;2.40;;;1.33;;
9436;SDS011;4757;59.334;18.034;2023-02-11T15:37:20;5.23;;;2.30;;
9436;SDS011;4757;59.334;18.034;2023-02-11T15:39:52;8.17;;;1.80;;
9436;SDS011;4757;59.334;18.034;2023-02-11T15:42:27;4.70;;;2.00;;
9436;SDS011;4757;59.334;18.034;2023-02-11T15:47:40;5.90;;;2.20;;
9436;SDS011;4757;59.334;18.034;2023-02-11T15:50:21;2.93;;;1.80;;
9436;SDS011;4757;59.334;18.034;2023-02-11T15:52:51;3.17;;;1.87;;
9436;SDS011;4757;59.334;18.034;2023-02-11T15:55:19;3.57;;;1.60;;
9436;SDS011;4757;59.334;18.034;2023-02-11T15:57:54;3.70;;;2.27;;
9436;SDS011;4757;59.334;18.034;2023-02-11T16:00:34;5.97;;;2.70;;
9436;SDS011;4757;59.334;18.034;2023-02-11T16:03:03;7.43;;;2.20;;
9436;SDS011;4757;59.334;18.034;2023-02-11T16:05:35;5.20;;;2.17;;
9436;SDS011;4757;59.334;18.034;2023-02-11T16:08:19;2.80;;;1.80;;
9436;SDS011;4757;59.334;18.034;2023-02-11T16:10:54;3.97;;;2.30;;
9436;SDS011;4757;59.334;18.034;2023-02-11T16:13:24;3.20;;;2.30;;
9436;SDS011;4757;59.334;18.034;2023-02-11T16:15:57;11.80;;;2.40;;
9436;SDS011;4757;59.334;18.034;2023-02-11T16:18:36;5.80;;;2.77;;
9436;SDS011;4757;59.334;18.034;2023-02-11T16:21:10;3.97;;;1.70;;
9436;SDS011;4757;59.334;18.034;2023-02-11T16:23:51;1.87;;;1.67;;
9436;SDS011;4757;59.334;18.034;2023-02-11T16:26:24;6.73;;;2.00;;
9436;SDS011;4757;59.334;18.034;2023-02-11T16:31:33;3.20;;;1.50;;
9436;SDS011;4757;59.334;18.034;2023-02-11T16:34:03;5.43;;;2.77;;
9436;SDS011;4757;59.334;18.034;2023-02-11T16:36:42;2.83;;;1.80;;
9436;SDS011;4757;59.334;18.034;2023-02-11T16:39:09;5.80;;;2.67;;
9436;SDS011;4757;59.334;18.034;2023-02-11T16:41:37;4.13;;;2.57;;
9436;SDS011;4757;59.334;18.034;2023-02-11T16:44:05;4.70;;;1.80;;
9436;SDS011;4757;59.334;18.034;2023-02-11T16:46:32;5.47;;;2.30;;
9436;SDS011;4757;59.334;18.034;2023-02-11T16:49:03;3.87;;;2.00;;
9436;SDS011;4757;59.334;18.034;2023-02-11T16:51:42;7.70;;;2.47;;
9436;SDS011;4757;59.334;18.034;2023-02-11T16:54:12;6.23;;;2.70;;
9436;SDS011;4757;59.334;18.034;2023-02-11T16:56:42;4.27;;;2.20;;
9436;SDS011;4757;59.334;18.034;2023-02-11T16:59:10;7.17;;;2.83;;
9436;SDS011;4757;59.334;18.034;2023-02-11T17:01:40;5.10;;;2.90;;
9436;SDS011;4757;59.334;18.034;2023-02-11T17:04:16;6.43;;;3.20;;
9436;SDS011;4757;59.334;18.034;2023-02-11T17:06:46;4.27;;;2.20;;
9436;SDS011;4757;59.334;18.034;2023-02-11T17:09:17;5.27;;;3.00;;
9436;SDS011;4757;59.334;18.034;2023-02-11T17:11:47;6.17;;;2.60;;
9436;SDS011;4757;59.334;18.034;2023-02-11T17:14:14;4.27;;;2.90;;
9436;SDS011;4757;59.334;18.034;2023-02-11T17:16:42;4.70;;;2.50;;
9436;SDS011;4757;59.334;18.034;2023-02-11T17:19:12;5.90;;;2.70;;
9436;SDS011;4757;59.334;18.034;2023-02-11T17:21:40;10.40;;;4.97;;
9436;SDS011;4757;59.334;18.034;2023-02-11T17:24:09;7.97;;;3.90;;
9436;SDS011;4757;59.334;18.034;2023-02-11T17:26:37;10.43;;;4.97;;
9436;SDS011;4757;59.334;18.034;2023-02-11T17:29:05;9.00;;;4.33;;
9436;SDS011;4757;59.334;18.034;2023-02-11T17:31:33;5.70;;;3.13;;
9436;SDS011;4757;59.334;18.034;2023-02-11T17:34:01;7.83;;;3.07;;
9436;SDS011;4757;59.334;18.034;2023-02-11T17:36:28;10.97;;;5.17;;
9436;SDS011;4757;59.334;18.034;2023-02-11T17:38:58;9.93;;;5.37;;
9436;SDS011;4757;59.334;18.034;2023-02-11T17:41:26;10.53;;;5.20;;
9436;SDS011;4757;59.334;18.034;2023-02-11T17:43:56;11.87;;;6.27;;
9436;SDS011;4757;59.334;18.034;2023-02-11T17:46:24;7.83;;;5.17;;
9436;SDS011;4757;59.334;18.034;2023-02-11T17:48:51;7.00;;;4.00;;
9436;SDS011;4757;59.334;18.034;2023-02-11T17:51:28;8.93;;;4.30;;
9436;SDS011;4757;59.334;18.034;2023-02-11T17:54:04;6.10;;;3.23;;